»·PEaware :: DAL2841 KSLC-KPDX

DAL2841 :: KSLC-KPDX

FLIGHT INFORMATION

Flight Status: Arrived
Operator:
Delta Air Lines
More flights by this operator :: More flights under this callsign
Pilot: Joe P. (13940)
Aircraft: MCDONNELL-DOUGLAS MD-82
(MD82)
More flights by this aircraft type
Origin: KSLC Salt Lake City Intl
United States
Destination: KPDX Portland Intl
United States
More flights between these airports :: More routes between these airports
Route: TWF4 TWF BOI BKE JOTBA HHOOD4
File this flight plan on PilotEdge
Remarks: SEL / ABCD KSEA -PBN / B3B4B5D3D4 DOF / 180506 REG / N904DL EET / KZSE0058
Altitude:
(Current/Filed)
340ft
Speed:
(Current/Filed)
439kts
Departed: 12-May-18 02:44 PM
Arrived: 12-May-18 04:12 PM
Distance/Time
Traveled:
546nm/1:28
Distance/Time
To Go:
Arrived

Flight Plot

Page will automatically refresh every two minutes.

Flight plan parsing failed; only flown route is shown


Map Options




Map Legend


Flown Route
Filed Route
Departure Airport
Arrival Airport
Navaid (VOR, NDB)
Fix

Horizontal Profiles

Position Reports

Time Latitude Longitude Heading Altitude Ground
Speed
12-May-18 14:04 40.785586 -111.978056 231 4236ft 0kts
12-May-18 14:05 40.785586 -111.978056 231 4236ft 0kts
12-May-18 14:06 40.785586 -111.978056 231 4236ft 0kts
12-May-18 14:07 40.785586 -111.978056 231 4236ft 0kts
12-May-18 14:08 40.785586 -111.978056 231 4236ft 0kts
12-May-18 14:09 40.785586 -111.978056 231 4236ft 0kts
12-May-18 14:10 40.785586 -111.978056 231 4236ft 0kts
12-May-18 14:11 40.785586 -111.978056 231 4236ft 0kts
12-May-18 14:12 40.785586 -111.978056 231 4236ft 0kts
12-May-18 14:13 40.785586 -111.978056 231 4236ft 0kts
12-May-18 14:14 40.785586 -111.978056 231 4236ft 0kts
12-May-18 14:15 40.785586 -111.978056 231 4236ft 0kts
12-May-18 14:16 40.785586 -111.978056 231 4236ft 0kts
12-May-18 14:17 40.785586 -111.978056 231 4236ft 0kts
12-May-18 14:18 40.785586 -111.978056 231 4236ft 0kts
12-May-18 14:19 40.785586 -111.978056 231 4236ft 0kts
12-May-18 14:20 40.785586 -111.978056 231 4236ft 0kts
12-May-18 14:21 40.785586 -111.978056 231 4236ft 0kts
12-May-18 14:22 40.785586 -111.978056 231 4236ft 0kts
12-May-18 14:23 40.785586 -111.978056 231 4236ft 0kts
12-May-18 14:24 40.785586 -111.978056 231 4236ft 0kts
12-May-18 14:25 40.785586 -111.978056 231 4236ft 0kts
12-May-18 14:26 40.785586 -111.978056 231 4236ft 0kts
12-May-18 14:27 40.785586 -111.978056 231 4236ft 0kts
12-May-18 14:28 40.785586 -111.978056 231 4236ft 0kts
12-May-18 14:29 40.785586 -111.978056 231 4236ft 0kts
12-May-18 14:30 40.785586 -111.978056 231 4236ft 0kts
12-May-18 14:31 40.785717 -111.977815 240 4236ft 2kts
12-May-18 14:32 40.785859 -111.976785 281 4236ft 2kts
12-May-18 14:33 40.785791 -111.976476 291 4236ft 0kts
12-May-18 14:34 40.785791 -111.976476 291 4236ft 0kts
12-May-18 14:35 40.785791 -111.976476 291 4236ft 0kts
12-May-18 14:36 40.785791 -111.976476 291 4236ft 0kts
12-May-18 14:37 40.786223 -111.976860 345 4236ft 6kts
12-May-18 14:38 40.789761 -111.977218 357 4236ft 18kts
12-May-18 14:39 40.795504 -111.977830 355 4236ft 22kts
12-May-18 14:40 40.801715 -111.978509 355 4236ft 22kts
12-May-18 14:41 40.807008 -111.979099 6 4236ft 10kts
12-May-18 14:42 40.807500 -111.978534 77 4236ft 1kts
12-May-18 14:43 40.806865 -111.976830 180 4236ft 0kts
12-May-18 14:44 40.785567 -111.974332 176 4298ft 161kts
12-May-18 14:45 40.743219 -111.999744 242 5987ft 228kts
12-May-18 14:46 40.752051 -112.090725 298 8033ft 274kts
12-May-18 14:47 40.788995 -112.181378 291 10229ft 289kts
12-May-18 14:48 40.822182 -112.282329 292 12521ft 311kts
12-May-18 14:49 40.896101 -112.348788 332 14991ft 334kts
12-May-18 14:50 40.984048 -112.394945 339 17322ft 346kts
12-May-18 14:51 41.077585 -112.434823 338 19470ft 359kts
12-May-18 14:52 41.163808 -112.502892 321 21438ft 366kts
12-May-18 14:53 41.245285 -112.587438 317 22958ft 385kts
12-May-18 14:54 41.328429 -112.690987 307 23565ft 421kts
12-May-18 14:55 41.406550 -112.809722 307 24924ft 432kts
12-May-18 14:56 41.486560 -112.930717 306 26143ft 440kts
12-May-18 14:57 41.567727 -113.054936 306 27235ft 446kts
12-May-18 14:58 41.649619 -113.180791 306 28182ft 452kts
12-May-18 14:59 41.732370 -113.308519 306 29015ft 457kts
12-May-18 15:00 41.816002 -113.438360 307 29826ft 460kts
12-May-18 15:01 41.898343 -113.566230 307 31221ft 446kts
12-May-18 15:02 41.977554 -113.690259 307 32708ft 430kts
12-May-18 15:03 42.054041 -113.810683 307 33909ft 421kts
12-May-18 15:04 42.131704 -113.933341 308 33940ft 441kts
12-May-18 15:05 42.212937 -114.061661 308 33940ft 455kts
12-May-18 15:06 42.294285 -114.190689 308 33941ft 454kts
12-May-18 15:07 42.375480 -114.320153 308 33943ft 453kts
12-May-18 15:08 42.456891 -114.450373 309 33944ft 452kts
12-May-18 15:09 42.538270 -114.579725 310 33943ft 451kts
12-May-18 15:10 42.621188 -114.707291 311 33939ft 450kts
12-May-18 15:11 42.703813 -114.835691 311 33937ft 449kts
12-May-18 15:12 42.785824 -114.964053 311 33932ft 449kts
12-May-18 15:13 42.867932 -115.092877 312 33929ft 449kts
12-May-18 15:14 42.949657 -115.221409 312 33926ft 449kts
12-May-18 15:15 43.031166 -115.350184 312 33923ft 448kts
12-May-18 15:16 43.112738 -115.479635 312 33917ft 448kts
12-May-18 15:17 43.193477 -115.609070 313 33915ft 447kts
12-May-18 15:18 43.274293 -115.738349 313 33913ft 446kts
12-May-18 15:19 43.355089 -115.868126 314 33908ft 446kts
12-May-18 15:20 43.435309 -115.997722 314 33897ft 445kts
12-May-18 15:21 43.515037 -116.127574 315 33888ft 443kts
12-May-18 15:22 43.599043 -116.250042 323 33886ft 437kts
12-May-18 15:23 43.690992 -116.359007 324 33877ft 436kts
12-May-18 15:24 43.782331 -116.470146 323 33872ft 436kts
12-May-18 15:25 43.872798 -116.581871 323 33866ft 435kts
12-May-18 15:26 43.963196 -116.693548 323 33868ft 435kts
12-May-18 15:27 44.053293 -116.805349 324 33867ft 429kts
12-May-18 15:28 44.142226 -116.916373 324 33867ft 428kts
12-May-18 15:29 44.230691 -117.027294 325 33870ft 426kts
12-May-18 15:30 44.319059 -117.137923 325 33878ft 424kts
12-May-18 15:31 44.406717 -117.248285 325 33890ft 423kts
12-May-18 15:32 44.494210 -117.359404 325 33905ft 423kts
12-May-18 15:33 44.581387 -117.469602 325 33915ft 423kts
12-May-18 15:34 44.668173 -117.580499 325 33921ft 422kts
12-May-18 15:35 44.755088 -117.692042 325 33924ft 422kts
12-May-18 15:36 44.833931 -117.814667 302 33927ft 447kts
12-May-18 15:37 44.868399 -117.987482 285 33930ft 468kts
12-May-18 15:38 44.887120 -118.170076 288 33949ft 468kts
12-May-18 15:39 44.911816 -118.349685 289 33963ft 467kts
12-May-18 15:40 44.934533 -118.530750 288 33968ft 469kts
12-May-18 15:41 44.957225 -118.711539 288 33983ft 469kts
12-May-18 15:42 44.979912 -118.892202 289 33985ft 468kts
12-May-18 15:43 45.002128 -119.074043 288 33978ft 469kts
12-May-18 15:44 45.023929 -119.255196 289 33980ft 468kts
12-May-18 15:45 45.045577 -119.436686 289 33976ft 468kts
12-May-18 15:46 45.067109 -119.618587 288 33976ft 467kts
12-May-18 15:47 45.087881 -119.800172 289 33977ft 467kts
12-May-18 15:48 45.108524 -119.982642 289 33978ft 468kts
12-May-18 15:49 45.129167 -120.163263 287 33979ft 467kts
12-May-18 15:50 45.146416 -120.345464 289 33960ft 464kts
12-May-18 15:51 45.172172 -120.524011 299 31415ft 450kts
12-May-18 15:52 45.227202 -120.675401 311 28842ft 422kts
12-May-18 15:53 45.283961 -120.819288 306 26341ft 413kts
12-May-18 15:54 45.338032 -120.961052 306 23790ft 400kts
12-May-18 15:55 45.390587 -121.097479 306 21327ft 388kts
12-May-18 15:56 45.436895 -121.234425 296 18745ft 388kts
12-May-18 15:57 45.466606 -121.385718 289 15948ft 382kts
12-May-18 15:58 45.493468 -121.523183 291 13762ft 368kts
12-May-18 15:59 45.521314 -121.664368 289 10978ft 351kts
12-May-18 16:00 45.535497 -121.783963 276 10236ft 284kts
12-May-18 16:01 45.539113 -121.896761 274 8773ft 291kts
12-May-18 16:02 45.543696 -122.005682 275 7294ft 258kts
12-May-18 16:03 45.525042 -122.096746 240 5905ft 232kts
12-May-18 16:04 45.492794 -122.175986 240 4809ft 223kts
12-May-18 16:05 45.465475 -122.250428 268 3986ft 203kts
12-May-18 16:06 45.486244 -122.313940 292 3944ft 176kts
12-May-18 16:07 45.507867 -122.375464 301 2925ft 171kts
12-May-18 16:08 45.529950 -122.429472 299 2197ft 150kts
12-May-18 16:09 45.550319 -122.481469 297 1397ft 147kts
12-May-18 16:10 45.570177 -122.531960 299 624ft 140kts
12-May-18 16:11 45.588758 -122.580212 298 27ft 117kts
12-May-18 16:12 45.592061 -122.590390 272 27ft 0kts
12-May-18 16:13 45.592063 -122.590458 272 27ft 2kts
12-May-18 16:14 45.592212 -122.594729 293 27ft 8kts
12-May-18 16:15 45.591939 -122.595589 214 27ft 0kts
12-May-18 16:16 45.591939 -122.595589 214 27ft 0kts
12-May-18 16:17 45.591939 -122.595589 214 27ft 0kts
12-May-18 16:18 45.591939 -122.595589 214 27ft 0kts
12-May-18 16:19 45.591939 -122.595589 214 27ft 0kts
12-May-18 16:20 45.591939 -122.595589 214 27ft 0kts
12-May-18 16:21 45.591939 -122.595589 214 27ft 0kts
12-May-18 16:22 45.591939 -122.595589 214 27ft 0kts
12-May-18 16:23 45.591939 -122.595589 214 27ft 0kts
12-May-18 16:24 45.591939 -122.595589 214 27ft 0kts
12-May-18 16:25 45.591939 -122.595589 214 27ft 0kts
12-May-18 16:26 45.591939 -122.595589 214 27ft 0kts

Navigation Log

Ident Type
Flight plan parsing failed, navigation log unavailable